sensor_id;sensor_type;location;lat;lon;timestamp;temperature;humidity
63013;DHT22;62113;45.624;11.700;2023-05-18T00:00:22;18.90;55.90
63013;DHT22;62113;45.624;11.700;2023-05-18T00:02:48;18.90;56.00
63013;DHT22;62113;45.624;11.700;2023-05-18T00:05:14;18.90;56.00
63013;DHT22;62113;45.624;11.700;2023-05-18T00:07:39;18.90;55.70
63013;DHT22;62113;45.624;11.700;2023-05-18T00:10:05;18.90;55.70
63013;DHT22;62113;45.624;11.700;2023-05-18T00:12:31;18.90;55.80
63013;DHT22;62113;45.624;11.700;2023-05-18T00:14:57;18.90;55.80
63013;DHT22;62113;45.624;11.700;2023-05-18T00:17:22;18.90;55.70
63013;DHT22;62113;45.624;11.700;2023-05-18T00:19:47;18.90;55.80
63013;DHT22;62113;45.624;11.700;2023-05-18T00:22:14;18.90;55.80
63013;DHT22;62113;45.624;11.700;2023-05-18T00:24:46;18.90;55.70
63013;DHT22;62113;45.624;11.700;2023-05-18T00:27:11;18.90;55.70
63013;DHT22;62113;45.624;11.700;2023-05-18T00:29:37;18.80;55.70
63013;DHT22;62113;45.624;11.700;2023-05-18T00:32:03;18.80;55.70
63013;DHT22;62113;45.624;11.700;2023-05-18T00:34:28;18.80;55.70
63013;DHT22;62113;45.624;11.700;2023-05-18T00:36:54;18.80;55.80
63013;DHT22;62113;45.624;11.700;2023-05-18T00:39:19;18.80;55.80
63013;DHT22;62113;45.624;11.700;2023-05-18T00:41:45;18.80;55.90
63013;DHT22;62113;45.624;11.700;2023-05-18T00:44:10;18.80;55.90
63013;DHT22;62113;45.624;11.700;2023-05-18T00:46:36;18.80;55.90
63013;DHT22;62113;45.624;11.700;2023-05-18T00:49:01;18.80;55.80
63013;DHT22;62113;45.624;11.700;2023-05-18T00:51:27;18.80;55.70
63013;DHT22;62113;45.624;11.700;2023-05-18T00:53:54;18.70;55.60
63013;DHT22;62113;45.624;11.700;2023-05-18T00:56:20;18.70;55.60
63013;DHT22;62113;45.624;11.700;2023-05-18T00:58:48;18.70;55.70
63013;DHT22;62113;45.624;11.700;2023-05-18T01:01:14;18.70;55.90
63013;DHT22;62113;45.624;11.700;2023-05-18T01:03:41;18.70;56.00
63013;DHT22;62113;45.624;11.700;2023-05-18T01:06:07;18.60;56.10
63013;DHT22;62113;45.624;11.700;2023-05-18T01:08:33;18.60;56.20
63013;DHT22;62113;45.624;11.700;2023-05-18T01:13:52;18.50;56.40
63013;DHT22;62113;45.624;11.700;2023-05-18T01:16:22;18.50;56.40
63013;DHT22;62113;45.624;11.700;2023-05-18T01:18:53;18.50;56.50
63013;DHT22;62113;45.624;11.700;2023-05-18T01:21:43;18.50;56.50
63013;DHT22;62113;45.624;11.700;2023-05-18T01:26:48;18.40;57.00
63013;DHT22;62113;45.624;11.700;2023-05-18T01:29:14;18.40;57.10
63013;DHT22;62113;45.624;11.700;2023-05-18T01:31:42;18.40;57.20
63013;DHT22;62113;45.624;11.700;2023-05-18T01:34:07;18.40;57.30
63013;DHT22;62113;45.624;11.700;2023-05-18T01:36:33;18.40;57.40
63013;DHT22;62113;45.624;11.700;2023-05-18T01:38:58;18.40;57.50
63013;DHT22;62113;45.624;11.700;2023-05-18T01:41:29;18.30;57.50
63013;DHT22;62113;45.624;11.700;2023-05-18T01:48:58;18.30;57.60
63013;DHT22;62113;45.624;11.700;2023-05-18T01:51:25;18.30;57.70
63013;DHT22;62113;45.624;11.700;2023-05-18T01:53:58;18.30;57.80
63013;DHT22;62113;45.624;11.700;2023-05-18T01:56:24;18.30;57.80
63013;DHT22;62113;45.624;11.700;2023-05-18T01:58:50;18.30;57.80
63013;DHT22;62113;45.624;11.700;2023-05-18T02:01:17;18.20;57.80
63013;DHT22;62113;45.624;11.700;2023-05-18T02:03:44;18.20;57.90
63013;DHT22;62113;45.624;11.700;2023-05-18T02:06:09;18.20;57.90
63013;DHT22;62113;45.624;11.700;2023-05-18T02:08:35;18.20;58.00
63013;DHT22;62113;45.624;11.700;2023-05-18T02:11:01;18.20;57.90
63013;DHT22;62113;45.624;11.700;2023-05-18T02:13:26;18.20;57.80
63013;DHT22;62113;45.624;11.700;2023-05-18T02:15:52;18.20;57.60
63013;DHT22;62113;45.624;11.700;2023-05-18T02:18:17;18.10;57.60
63013;DHT22;62113;45.624;11.700;2023-05-18T02:20:43;18.10;57.60
63013;DHT22;62113;45.624;11.700;2023-05-18T02:23:08;18.10;57.60
63013;DHT22;62113;45.624;11.700;2023-05-18T02:25:34;18.00;57.50
63013;DHT22;62113;45.624;11.700;2023-05-18T02:27:59;18.00;57.40
63013;DHT22;62113;45.624;11.700;2023-05-18T02:30:25;18.00;57.30
63013;DHT22;62113;45.624;11.700;2023-05-18T02:32:50;18.00;57.30
63013;DHT22;62113;45.624;11.700;2023-05-18T02:35:16;18.00;57.40
63013;DHT22;62113;45.624;11.700;2023-05-18T02:37:44;17.90;57.50
63013;DHT22;62113;45.624;11.700;2023-05-18T02:40:11;17.90;57.50
63013;DHT22;62113;45.624;11.700;2023-05-18T02:42:37;17.80;57.50
63013;DHT22;62113;45.624;11.700;2023-05-18T02:45:03;17.80;57.50
63013;DHT22;62113;45.624;11.700;2023-05-18T02:47:29;17.70;57.60
63013;DHT22;62113;45.624;11.700;2023-05-18T02:49:54;17.70;57.60
63013;DHT22;62113;45.624;11.700;2023-05-18T02:52:20;17.70;57.60
63013;DHT22;62113;45.624;11.700;2023-05-18T02:54:45;17.60;57.70
63013;DHT22;62113;45.624;11.700;2023-05-18T02:57:11;17.60;57.70
63013;DHT22;62113;45.624;11.700;2023-05-18T02:59:38;17.70;57.80
63013;DHT22;62113;45.624;11.700;2023-05-18T03:02:03;17.50;57.90
63013;DHT22;62113;45.624;11.700;2023-05-18T03:04:29;17.50;58.00
63013;DHT22;62113;45.624;11.700;2023-05-18T03:06:56;17.50;58.00
63013;DHT22;62113;45.624;11.700;2023-05-18T03:09:22;17.50;58.10
63013;DHT22;62113;45.624;11.700;2023-05-18T03:11:48;17.50;58.20
63013;DHT22;62113;45.624;11.700;2023-05-18T03:14:13;17.40;58.30
63013;DHT22;62113;45.624;11.700;2023-05-18T03:16:39;17.40;58.30
63013;DHT22;62113;45.624;11.700;2023-05-18T03:19:04;17.30;58.50
63013;DHT22;62113;45.624;11.700;2023-05-18T03:21:30;17.30;58.60
63013;DHT22;62113;45.624;11.700;2023-05-18T03:23:58;17.30;58.70
63013;DHT22;62113;45.624;11.700;2023-05-18T03:26:24;17.20;58.80
63013;DHT22;62113;45.624;11.700;2023-05-18T03:28:50;17.20;58.90
63013;DHT22;62113;45.624;11.700;2023-05-18T03:31:16;17.20;58.90
63013;DHT22;62113;45.624;11.700;2023-05-18T03:33:41;17.20;59.00
63013;DHT22;62113;45.624;11.700;2023-05-18T03:36:07;17.10;59.00
63013;DHT22;62113;45.624;11.700;2023-05-18T03:38:32;17.20;59.10
63013;DHT22;62113;45.624;11.700;2023-05-18T03:40:58;17.10;59.20
63013;DHT22;62113;45.624;11.700;2023-05-18T03:43:24;17.10;59.20
63013;DHT22;62113;45.624;11.700;2023-05-18T03:45:50;17.00;59.20
63013;DHT22;62113;45.624;11.700;2023-05-18T03:48:15;17.00;59.30
63013;DHT22;62113;45.624;11.700;2023-05-18T03:50:41;17.00;59.40
63013;DHT22;62113;45.624;11.700;2023-05-18T03:53:07;17.00;59.40
63013;DHT22;62113;45.624;11.700;2023-05-18T03:55:33;16.90;59.40
63013;DHT22;62113;45.624;11.700;2023-05-18T03:57:59;17.00;59.30
63013;DHT22;62113;45.624;11.700;2023-05-18T04:00:25;17.00;59.30
63013;DHT22;62113;45.624;11.700;2023-05-18T04:02:51;17.00;59.30
63013;DHT22;62113;45.624;11.700;2023-05-18T04:05:16;17.00;59.20
63013;DHT22;62113;45.624;11.700;2023-05-18T04:07:42;17.00;59.20
63013;DHT22;62113;45.624;11.700;2023-05-18T04:10:13;17.00;59.20
63013;DHT22;62113;45.624;11.700;2023-05-18T04:12:39;17.00;59.10
63013;DHT22;62113;45.624;11.700;2023-05-18T04:15:05;17.00;59.10
63013;DHT22;62113;45.624;11.700;2023-05-18T04:17:30;17.00;59.00
63013;DHT22;62113;45.624;11.700;2023-05-18T04:19:57;17.00;58.90
63013;DHT22;62113;45.624;11.700;2023-05-18T04:22:23;17.10;58.80
63013;DHT22;62113;45.624;11.700;2023-05-18T04:24:48;17.10;58.80
63013;DHT22;62113;45.624;11.700;2023-05-18T04:27:14;17.10;58.80
63013;DHT22;62113;45.624;11.700;2023-05-18T04:29:40;17.20;58.60
63013;DHT22;62113;45.624;11.700;2023-05-18T04:32:08;17.30;58.50
63013;DHT22;62113;45.624;11.700;2023-05-18T04:34:34;17.50;58.40
63013;DHT22;62113;45.624;11.700;2023-05-18T04:37:02;17.70;58.30
63013;DHT22;62113;45.624;11.700;2023-05-18T04:39:30;18.30;57.70
63013;DHT22;62113;45.624;11.700;2023-05-18T04:41:55;19.40;55.50
63013;DHT22;62113;45.624;11.700;2023-05-18T04:44:25;20.40;53.30
63013;DHT22;62113;45.624;11.700;2023-05-18T04:46:51;21.50;51.80
63013;DHT22;62113;45.624;11.700;2023-05-18T04:49:17;22.70;49.10
63013;DHT22;62113;45.624;11.700;2023-05-18T04:51:47;23.90;46.80
63013;DHT22;62113;45.624;11.700;2023-05-18T04:54:14;25.10;44.70
63013;DHT22;62113;45.624;11.700;2023-05-18T04:56:40;26.20;43.60
63013;DHT22;62113;45.624;11.700;2023-05-18T04:59:07;27.10;42.20
63013;DHT22;62113;45.624;11.700;2023-05-18T05:01:32;27.90;40.40
63013;DHT22;62113;45.624;11.700;2023-05-18T05:03:58;28.60;39.40
63013;DHT22;62113;45.624;11.700;2023-05-18T05:06:23;28.70;37.90
63013;DHT22;62113;45.624;11.700;2023-05-18T05:08:49;28.30;37.60
63013;DHT22;62113;45.624;11.700;2023-05-18T05:11:14;27.50;37.50
63013;DHT22;62113;45.624;11.700;2023-05-18T05:13:40;26.40;39.10
63013;DHT22;62113;45.624;11.700;2023-05-18T05:16:05;25.50;40.50
63013;DHT22;62113;45.624;11.700;2023-05-18T05:18:31;24.70;41.90
63013;DHT22;62113;45.624;11.700;2023-05-18T05:20:56;23.90;43.20
63013;DHT22;62113;45.624;11.700;2023-05-18T05:23:23;23.30;44.70
63013;DHT22;62113;45.624;11.700;2023-05-18T05:25:49;22.70;45.80
63013;DHT22;62113;45.624;11.700;2023-05-18T05:28:14;22.30;47.00
63013;DHT22;62113;45.624;11.700;2023-05-18T05:30:40;21.80;48.50
63013;DHT22;62113;45.624;11.700;2023-05-18T05:33:05;21.50;49.50
63013;DHT22;62113;45.624;11.700;2023-05-18T05:35:31;21.20;50.30
63013;DHT22;62113;45.624;11.700;2023-05-18T05:37:57;21.00;50.70
63013;DHT22;62113;45.624;11.700;2023-05-18T05:40:22;20.90;51.40
63013;DHT22;62113;45.624;11.700;2023-05-18T05:42:48;20.70;51.70
63013;DHT22;62113;45.624;11.700;2023-05-18T05:45:14;20.70;52.40
63013;DHT22;62113;45.624;11.700;2023-05-18T05:47:40;20.60;52.60
63013;DHT22;62113;45.624;11.700;2023-05-18T05:50:05;20.70;52.70
63013;DHT22;62113;45.624;11.700;2023-05-18T05:52:31;20.70;52.90
63013;DHT22;62113;45.624;11.700;2023-05-18T05:54:56;20.80;52.90
63013;DHT22;62113;45.624;11.700;2023-05-18T05:57:22;21.00;53.10
63013;DHT22;62113;45.624;11.700;2023-05-18T05:59:47;21.40;52.70
63013;DHT22;62113;45.624;11.700;2023-05-18T06:02:13;22.50;51.60
63013;DHT22;62113;45.624;11.700;2023-05-18T06:04:38;24.20;48.60
63013;DHT22;62113;45.624;11.700;2023-05-18T06:07:04;26.20;44.60
63013;DHT22;62113;45.624;11.700;2023-05-18T06:09:30;28.00;40.60
63013;DHT22;62113;45.624;11.700;2023-05-18T06:11:56;29.80;39.00
63013;DHT22;62113;45.624;11.700;2023-05-18T06:14:21;31.30;36.00
63013;DHT22;62113;45.624;11.700;2023-05-18T06:16:46;32.50;34.30
63013;DHT22;62113;45.624;11.700;2023-05-18T06:19:12;33.70;33.40
63013;DHT22;62113;45.624;11.700;2023-05-18T06:21:38;34.60;32.30
63013;DHT22;62113;45.624;11.700;2023-05-18T06:24:04;35.50;31.20
63013;DHT22;62113;45.624;11.700;2023-05-18T06:26:29;36.30;30.30
63013;DHT22;62113;45.624;11.700;2023-05-18T06:28:55;37.10;29.30
63013;DHT22;62113;45.624;11.700;2023-05-18T06:31:21;37.80;28.50
63013;DHT22;62113;45.624;11.700;2023-05-18T06:33:47;38.50;27.60
63013;DHT22;62113;45.624;11.700;2023-05-18T06:36:13;39.10;26.90
63013;DHT22;62113;45.624;11.700;2023-05-18T06:38:39;39.80;25.70
63013;DHT22;62113;45.624;11.700;2023-05-18T06:41:05;40.50;24.60
63013;DHT22;62113;45.624;11.700;2023-05-18T06:43:30;40.90;23.90
63013;DHT22;62113;45.624;11.700;2023-05-18T06:45:56;41.50;23.50
63013;DHT22;62113;45.624;11.700;2023-05-18T06:48:23;41.90;23.00
63013;DHT22;62113;45.624;11.700;2023-05-18T06:50:48;42.20;22.60
63013;DHT22;62113;45.624;11.700;2023-05-18T06:53:13;42.50;22.10
63013;DHT22;62113;45.624;11.700;2023-05-18T06:55:39;42.80;21.70
63013;DHT22;62113;45.624;11.700;2023-05-18T06:58:05;43.10;20.90
63013;DHT22;62113;45.624;11.700;2023-05-18T07:00:30;43.30;20.60
63013;DHT22;62113;45.624;11.700;2023-05-18T07:02:56;43.70;19.70
63013;DHT22;62113;45.624;11.700;2023-05-18T07:05:21;43.70;19.90
63013;DHT22;62113;45.624;11.700;2023-05-18T07:07:47;43.90;19.90
63013;DHT22;62113;45.624;11.700;2023-05-18T07:10:13;44.00;19.30
63013;DHT22;62113;45.624;11.700;2023-05-18T07:12:38;44.20;19.40
63013;DHT22;62113;45.624;11.700;2023-05-18T07:15:04;44.60;19.00
63013;DHT22;62113;45.624;11.700;2023-05-18T07:17:30;44.60;18.80
63013;DHT22;62113;45.624;11.700;2023-05-18T07:19:55;44.90;18.30
63013;DHT22;62113;45.624;11.700;2023-05-18T07:22:21;45.10;18.50
63013;DHT22;62113;45.624;11.700;2023-05-18T07:24:46;44.70;17.60
63013;DHT22;62113;45.624;11.700;2023-05-18T07:27:12;45.10;17.90
63013;DHT22;62113;45.624;11.700;2023-05-18T07:29:37;45.30;17.10
63013;DHT22;62113;45.624;11.700;2023-05-18T07:32:03;45.20;16.90
63013;DHT22;62113;45.624;11.700;2023-05-18T07:34:29;45.10;16.90
63013;DHT22;62113;45.624;11.700;2023-05-18T07:36:55;45.50;16.90
63013;DHT22;62113;45.624;11.700;2023-05-18T07:39:21;46.00;16.80
63013;DHT22;62113;45.624;11.700;2023-05-18T07:41:53;46.10;16.30
63013;DHT22;62113;45.624;11.700;2023-05-18T07:44:18;46.00;15.90
63013;DHT22;62113;45.624;11.700;2023-05-18T07:46:44;46.40;15.70
63013;DHT22;62113;45.624;11.700;2023-05-18T07:49:09;46.60;15.60
63013;DHT22;62113;45.624;11.700;2023-05-18T07:51:35;46.80;15.70
63013;DHT22;62113;45.624;11.700;2023-05-18T07:54:00;46.90;15.80
63013;DHT22;62113;45.624;11.700;2023-05-18T07:56:26;47.00;15.70
63013;DHT22;62113;45.624;11.700;2023-05-18T07:58:51;47.00;15.70
63013;DHT22;62113;45.624;11.700;2023-05-18T08:01:17;46.70;15.50
63013;DHT22;62113;45.624;11.700;2023-05-18T08:03:42;46.60;15.70
63013;DHT22;62113;45.624;11.700;2023-05-18T08:06:08;46.60;16.00
63013;DHT22;62113;45.624;11.700;2023-05-18T08:08:33;46.60;15.70
63013;DHT22;62113;45.624;11.700;2023-05-18T08:11:02;46.50;15.50
63013;DHT22;62113;45.624;11.700;2023-05-18T08:13:28;46.10;15.00
63013;DHT22;62113;45.624;11.700;2023-05-18T08:15:53;46.30;15.40
63013;DHT22;62113;45.624;11.700;2023-05-18T08:18:19;46.60;15.30
63013;DHT22;62113;45.624;11.700;2023-05-18T08:20:44;46.30;15.10
63013;DHT22;62113;45.624;11.700;2023-05-18T08:23:10;45.70;15.30
63013;DHT22;62113;45.624;11.700;2023-05-18T08:25:36;44.40;14.20
63013;DHT22;62113;45.624;11.700;2023-05-18T08:28:02;42.30;16.40
63013;DHT22;62113;45.624;11.700;2023-05-18T08:30:27;40.20;17.80
63013;DHT22;62113;45.624;11.700;2023-05-18T08:32:53;38.00;18.50
63013;DHT22;62113;45.624;11.700;2023-05-18T08:35:18;36.30;20.80
63013;DHT22;62113;45.624;11.700;2023-05-18T08:37:44;35.10;23.10
63013;DHT22;62113;45.624;11.700;2023-05-18T08:40:10;33.90;25.10
63013;DHT22;62113;45.624;11.700;2023-05-18T08:43:20;33.00;26.00
63013;DHT22;62113;45.624;11.700;2023-05-18T08:45:30;32.40;26.70
63013;DHT22;62113;45.624;11.700;2023-05-18T08:47:56;31.70;27.70
63013;DHT22;62113;45.624;11.700;2023-05-18T08:50:24;31.00;28.20
63013;DHT22;62113;45.624;11.700;2023-05-18T08:52:52;30.60;29.00
63013;DHT22;62113;45.624;11.700;2023-05-18T08:55:18;30.20;29.80
63013;DHT22;62113;45.624;11.700;2023-05-18T08:57:45;29.80;29.90
63013;DHT22;62113;45.624;11.700;2023-05-18T09:00:14;29.40;30.40
63013;DHT22;62113;45.624;11.700;2023-05-18T09:02:40;29.10;31.10
63013;DHT22;62113;45.624;11.700;2023-05-18T09:05:06;28.80;31.30
63013;DHT22;62113;45.624;11.700;2023-05-18T09:07:32;28.60;31.80
63013;DHT22;62113;45.624;11.700;2023-05-18T09:09:58;28.30;33.00
63013;DHT22;62113;45.624;11.700;2023-05-18T09:12:24;27.80;31.60
63013;DHT22;62113;45.624;11.700;2023-05-18T09:14:51;27.50;32.00
63013;DHT22;62113;45.624;11.700;2023-05-18T09:17:17;27.30;32.50
63013;DHT22;62113;45.624;11.700;2023-05-18T09:19:43;27.20;32.60
63013;DHT22;62113;45.624;11.700;2023-05-18T09:22:08;27.10;32.70
63013;DHT22;62113;45.624;11.700;2023-05-18T09:24:34;27.00;32.50
63013;DHT22;62113;45.624;11.700;2023-05-18T09:27:02;26.90;33.70
63013;DHT22;62113;45.624;11.700;2023-05-18T09:29:28;26.60;34.10
63013;DHT22;62113;45.624;11.700;2023-05-18T09:31:53;26.40;36.60
63013;DHT22;62113;45.624;11.700;2023-05-18T09:34:19;26.40;34.40
63013;DHT22;62113;45.624;11.700;2023-05-18T09:36:46;26.20;33.90
63013;DHT22;62113;45.624;11.700;2023-05-18T09:39:13;26.20;35.00
63013;DHT22;62113;45.624;11.700;2023-05-18T09:41:39;26.40;35.40
63013;DHT22;62113;45.624;11.700;2023-05-18T09:44:05;26.40;34.80
63013;DHT22;62113;45.624;11.700;2023-05-18T09:46:37;26.30;32.70
63013;DHT22;62113;45.624;11.700;2023-05-18T09:49:03;26.20;32.90
63013;DHT22;62113;45.624;11.700;2023-05-18T09:51:29;26.10;34.60
63013;DHT22;62113;45.624;11.700;2023-05-18T09:53:56;26.00;34.90
63013;DHT22;62113;45.624;11.700;2023-05-18T09:56:22;25.80;34.80
63013;DHT22;62113;45.624;11.700;2023-05-18T09:58:48;25.90;34.80
63013;DHT22;62113;45.624;11.700;2023-05-18T10:01:13;25.90;35.50
63013;DHT22;62113;45.624;11.700;2023-05-18T10:03:39;25.80;34.00
63013;DHT22;62113;45.624;11.700;2023-05-18T10:06:05;25.70;35.20
63013;DHT22;62113;45.624;11.700;2023-05-18T10:08:31;25.50;35.90
63013;DHT22;62113;45.624;11.700;2023-05-18T10:10:57;25.50;36.60
63013;DHT22;62113;45.624;11.700;2023-05-18T10:13:24;25.60;36.70
63013;DHT22;62113;45.624;11.700;2023-05-18T10:15:51;25.50;33.60
63013;DHT22;62113;45.624;11.700;2023-05-18T10:18:25;25.50;35.20
63013;DHT22;62113;45.624;11.700;2023-05-18T10:20:51;25.70;34.90
63013;DHT22;62113;45.624;11.700;2023-05-18T10:23:17;25.80;34.80
63013;DHT22;62113;45.624;11.700;2023-05-18T10:25:44;26.10;34.50
63013;DHT22;62113;45.624;11.700;2023-05-18T10:28:10;26.20;33.20
63013;DHT22;62113;45.624;11.700;2023-05-18T10:30:36;26.20;31.60
63013;DHT22;62113;45.624;11.700;2023-05-18T10:33:01;26.40;32.40
63013;DHT22;62113;45.624;11.700;2023-05-18T10:35:28;26.40;32.60
63013;DHT22;62113;45.624;11.700;2023-05-18T10:37:54;26.50;33.20
63013;DHT22;62113;45.624;11.700;2023-05-18T10:40:21;26.70;32.40
63013;DHT22;62113;45.624;11.700;2023-05-18T10:42:48;26.80;33.20
63013;DHT22;62113;45.624;11.700;2023-05-18T10:45:14;26.70;28.90
63013;DHT22;62113;45.624;11.700;2023-05-18T10:47:40;26.80;30.60
63013;DHT22;62113;45.624;11.700;2023-05-18T10:50:07;26.70;30.50
63013;DHT22;62113;45.624;11.700;2023-05-18T10:52:33;26.70;31.20
63013;DHT22;62113;45.624;11.700;2023-05-18T10:55:00;26.60;31.00
63013;DHT22;62113;45.624;11.700;2023-05-18T10:57:31;26.60;31.60
63013;DHT22;62113;45.624;11.700;2023-05-18T10:59:58;26.70;32.70
63013;DHT22;62113;45.624;11.700;2023-05-18T11:02:24;26.70;33.20
63013;DHT22;62113;45.624;11.700;2023-05-18T11:04:51;26.70;34.20
63013;DHT22;62113;45.624;11.700;2023-05-18T11:07:17;26.60;33.70
63013;DHT22;62113;45.624;11.700;2023-05-18T11:09:46;26.30;33.20
63013;DHT22;62113;45.624;11.700;2023-05-18T11:12:13;26.10;34.20
63013;DHT22;62113;45.624;11.700;2023-05-18T11:14:48;26.00;33.60
63013;DHT22;62113;45.624;11.700;2023-05-18T11:17:21;25.70;33.90
63013;DHT22;62113;45.624;11.700;2023-05-18T11:20:29;25.60;33.30
63013;DHT22;62113;45.624;11.700;2023-05-18T11:22:43;25.50;33.40
63013;DHT22;62113;45.624;11.700;2023-05-18T11:25:10;25.40;32.60
63013;DHT22;62113;45.624;11.700;2023-05-18T11:27:55;25.40;33.50
63013;DHT22;62113;45.624;11.700;2023-05-18T11:31:06;25.50;34.00
63013;DHT22;62113;45.624;11.700;2023-05-18T11:35:52;25.40;32.60
63013;DHT22;62113;45.624;11.700;2023-05-18T11:38:18;25.40;32.00
63013;DHT22;62113;45.624;11.700;2023-05-18T11:40:44;25.50;32.00
63013;DHT22;62113;45.624;11.700;2023-05-18T11:43:18;25.40;31.70
63013;DHT22;62113;45.624;11.700;2023-05-18T11:46:17;25.40;31.60
63013;DHT22;62113;45.624;11.700;2023-05-18T11:48:35;25.50;32.40
63013;DHT22;62113;45.624;11.700;2023-05-18T11:51:08;25.60;31.70
63013;DHT22;62113;45.624;11.700;2023-05-18T11:53:36;25.50;31.80
63013;DHT22;62113;45.624;11.700;2023-05-18T11:56:01;25.60;32.30
63013;DHT22;62113;45.624;11.700;2023-05-18T11:58:28;25.50;32.20
63013;DHT22;62113;45.624;11.700;2023-05-18T12:00:54;25.50;32.10
63013;DHT22;62113;45.624;11.700;2023-05-18T12:03:23;25.40;32.80
63013;DHT22;62113;45.624;11.700;2023-05-18T12:05:50;25.30;33.20
63013;DHT22;62113;45.624;11.700;2023-05-18T12:08:16;25.20;33.00
63013;DHT22;62113;45.624;11.700;2023-05-18T12:10:43;25.20;33.20
63013;DHT22;62113;45.624;11.700;2023-05-18T12:13:09;25.20;33.40
63013;DHT22;62113;45.624;11.700;2023-05-18T12:15:34;25.20;33.00
63013;DHT22;62113;45.624;11.700;2023-05-18T12:18:00;25.20;33.70
63013;DHT22;62113;45.624;11.700;2023-05-18T12:20:26;25.30;33.70
63013;DHT22;62113;45.624;11.700;2023-05-18T12:22:56;25.30;32.90
63013;DHT22;62113;45.624;11.700;2023-05-18T12:25:22;25.30;33.80
63013;DHT22;62113;45.624;11.700;2023-05-18T12:27:48;25.40;33.70
63013;DHT22;62113;45.624;11.700;2023-05-18T12:32:43;25.20;34.10
63013;DHT22;62113;45.624;11.700;2023-05-18T12:35:08;25.00;34.30
63013;DHT22;62113;45.624;11.700;2023-05-18T12:37:40;24.90;34.00
63013;DHT22;62113;45.624;11.700;2023-05-18T12:40:06;24.90;34.50
63013;DHT22;62113;45.624;11.700;2023-05-18T12:42:31;24.80;35.00
63013;DHT22;62113;45.624;11.700;2023-05-18T12:44:57;24.80;33.80
63013;DHT22;62113;45.624;11.700;2023-05-18T12:47:22;24.90;34.10
63013;DHT22;62113;45.624;11.700;2023-05-18T12:49:48;24.80;34.30
63013;DHT22;62113;45.624;11.700;2023-05-18T12:52:14;24.70;34.30
63013;DHT22;62113;45.624;11.700;2023-05-18T12:54:47;24.60;35.00
63013;DHT22;62113;45.624;11.700;2023-05-18T12:57:14;24.60;34.40
63013;DHT22;62113;45.624;11.700;2023-05-18T12:59:46;24.60;33.50
63013;DHT22;62113;45.624;11.700;2023-05-18T13:02:32;24.70;34.40
63013;DHT22;62113;45.624;11.700;2023-05-18T13:04:59;24.70;34.90
63013;DHT22;62113;45.624;11.700;2023-05-18T13:07:25;24.70;34.70
63013;DHT22;62113;45.624;11.700;2023-05-18T13:09:51;24.70;33.90
63013;DHT22;62113;45.624;11.700;2023-05-18T13:12:16;24.70;35.10
63013;DHT22;62113;45.624;11.700;2023-05-18T13:14:42;24.70;34.30
63013;DHT22;62113;45.624;11.700;2023-05-18T13:17:07;24.70;33.60
63013;DHT22;62113;45.624;11.700;2023-05-18T13:19:33;24.80;34.90
63013;DHT22;62113;45.624;11.700;2023-05-18T13:21:59;24.80;33.80
63013;DHT22;62113;45.624;11.700;2023-05-18T13:26:52;24.90;34.80
63013;DHT22;62113;45.624;11.700;2023-05-18T13:29:18;24.70;34.20
63013;DHT22;62113;45.624;11.700;2023-05-18T13:31:43;24.70;35.40
63013;DHT22;62113;45.624;11.700;2023-05-18T13:34:10;24.70;35.00
63013;DHT22;62113;45.624;11.700;2023-05-18T13:36:35;24.70;35.20
63013;DHT22;62113;45.624;11.700;2023-05-18T13:39:01;24.70;35.40
63013;DHT22;62113;45.624;11.700;2023-05-18T13:41:31;24.70;35.70
63013;DHT22;62113;45.624;11.700;2023-05-18T13:43:57;24.60;35.50
63013;DHT22;62113;45.624;11.700;2023-05-18T13:46:22;24.60;36.10
63013;DHT22;62113;45.624;11.700;2023-05-18T13:48:48;24.50;36.40
63013;DHT22;62113;45.624;11.700;2023-05-18T13:51:13;24.40;36.40
63013;DHT22;62113;45.624;11.700;2023-05-18T13:53:39;24.30;36.60
63013;DHT22;62113;45.624;11.700;2023-05-18T13:56:04;24.20;38.00
63013;DHT22;62113;45.624;11.700;2023-05-18T13:58:30;24.10;36.80
63013;DHT22;62113;45.624;11.700;2023-05-18T14:00:56;24.20;37.00
63013;DHT22;62113;45.624;11.700;2023-05-18T14:03:21;24.20;37.10
63013;DHT22;62113;45.624;11.700;2023-05-18T14:05:48;24.20;37.00
63013;DHT22;62113;45.624;11.700;2023-05-18T14:08:13;24.20;38.50
63013;DHT22;62113;45.624;11.700;2023-05-18T14:10:39;24.10;37.10
63013;DHT22;62113;45.624;11.700;2023-05-18T14:13:04;23.90;36.50
63013;DHT22;62113;45.624;11.700;2023-05-18T14:15:32;23.90;37.00
63013;DHT22;62113;45.624;11.700;2023-05-18T14:17:59;23.90;37.10
63013;DHT22;62113;45.624;11.700;2023-05-18T14:20:25;24.00;37.00
63013;DHT22;62113;45.624;11.700;2023-05-18T14:22:50;24.00;37.00
63013;DHT22;62113;45.624;11.700;2023-05-18T14:25:16;24.10;37.10
63013;DHT22;62113;45.624;11.700;2023-05-18T14:27:41;24.10;37.60
63013;DHT22;62113;45.624;11.700;2023-05-18T14:30:07;24.10;37.30
63013;DHT22;62113;45.624;11.700;2023-05-18T14:32:33;24.00;36.80
63013;DHT22;62113;45.624;11.700;2023-05-18T14:34:58;24.10;37.50
63013;DHT22;62113;45.624;11.700;2023-05-18T14:37:24;24.10;37.10
63013;DHT22;62113;45.624;11.700;2023-05-18T14:39:49;24.10;37.10
63013;DHT22;62113;45.624;11.700;2023-05-18T14:42:15;24.10;37.60
63013;DHT22;62113;45.624;11.700;2023-05-18T14:44:40;24.20;37.50
63013;DHT22;62113;45.624;11.700;2023-05-18T14:47:06;24.20;37.40
63013;DHT22;62113;45.624;11.700;2023-05-18T14:49:32;24.10;37.10
63013;DHT22;62113;45.624;11.700;2023-05-18T14:51:57;24.10;36.80
63013;DHT22;62113;45.624;11.700;2023-05-18T14:54:23;24.10;37.50
63013;DHT22;62113;45.624;11.700;2023-05-18T14:56:48;24.20;37.70
63013;DHT22;62113;45.624;11.700;2023-05-18T14:59:14;24.20;37.50
63013;DHT22;62113;45.624;11.700;2023-05-18T15:01:39;24.20;37.80
63013;DHT22;62113;45.624;11.700;2023-05-18T15:04:05;24.20;37.50
63013;DHT22;62113;45.624;11.700;2023-05-18T15:06:30;24.30;38.50
63013;DHT22;62113;45.624;11.700;2023-05-18T15:08:57;24.30;38.00
63013;DHT22;62113;45.624;11.700;2023-05-18T15:11:22;24.40;37.60
63013;DHT22;62113;45.624;11.700;2023-05-18T15:13:48;24.50;38.00
63013;DHT22;62113;45.624;11.700;2023-05-18T15:16:14;24.50;38.40
63013;DHT22;62113;45.624;11.700;2023-05-18T15:18:40;24.50;37.30
63013;DHT22;62113;45.624;11.700;2023-05-18T15:21:05;24.50;37.50
63013;DHT22;62113;45.624;11.700;2023-05-18T15:23:31;24.60;37.50
63013;DHT22;62113;45.624;11.700;2023-05-18T15:25:56;24.60;37.60
63013;DHT22;62113;45.624;11.700;2023-05-18T15:28:22;24.70;37.60